createdAt,value
2019-03-04T00:00:39.930Z,34.00
2019-03-04T00:03:10.461Z,34.50
2019-03-04T00:05:42.513Z,33.37
2019-03-04T00:08:13.211Z,33.70
2019-03-04T00:10:43.692Z,33.33
2019-03-04T00:13:14.240Z,32.73
2019-03-04T00:15:44.739Z,31.97
2019-03-04T00:18:15.966Z,33.40
2019-03-04T00:20:46.458Z,33.27
2019-03-04T00:23:16.942Z,31.60
2019-03-04T00:25:47.442Z,33.47
2019-03-04T00:28:17.900Z,31.20
2019-03-04T00:30:48.397Z,29.53
2019-03-04T00:33:18.930Z,32.90
2019-03-04T00:35:49.416Z,31.07
2019-03-04T00:38:19.920Z,32.80
2019-03-04T00:40:50.401Z,32.70
2019-03-04T00:43:20.908Z,30.97
2019-03-04T00:45:51.360Z,31.07
2019-03-04T00:48:21.866Z,31.77
2019-03-04T00:50:52.352Z,31.20
2019-03-04T00:53:22.823Z,30.40
2019-03-04T00:55:53.360Z,30.67
2019-03-04T00:58:23.934Z,30.10
2019-03-04T01:00:54.443Z,27.93
2019-03-04T01:03:24.904Z,29.03
2019-03-04T01:05:55.406Z,24.83
2019-03-04T01:08:25.934Z,26.20
2019-03-04T01:10:56.490Z,25.10
2019-03-04T01:13:27.216Z,25.17
2019-03-04T01:15:57.706Z,24.40
2019-03-04T01:18:28.167Z,28.30
2019-03-04T01:20:58.729Z,26.30
2019-03-04T01:23:29.222Z,25.60
2019-03-04T01:25:59.709Z,27.87
2019-03-04T01:28:30.178Z,26.43
2019-03-04T01:31:00.679Z,26.57
2019-03-04T01:33:31.145Z,27.37
2019-03-04T01:36:01.657Z,24.23
2019-03-04T01:38:32.121Z,24.90
2019-03-04T01:41:02.609Z,25.63
2019-03-04T01:43:33.070Z,25.93
2019-03-04T01:46:03.585Z,25.73
2019-03-04T01:48:34.036Z,25.60
2019-03-04T01:51:04.544Z,25.50
2019-03-04T01:53:35.002Z,26.10
2019-03-04T01:56:05.565Z,24.63
2019-03-04T01:58:36.080Z,23.00
2019-03-04T02:01:06.684Z,24.30
2019-03-04T02:03:37.149Z,22.50
2019-03-04T02:06:09.482Z,24.40
2019-03-04T02:08:40.102Z,27.37
2019-03-04T02:11:10.578Z,23.80
2019-03-04T02:13:41.033Z,24.53
2019-03-04T02:16:11.531Z,24.80
2019-03-04T02:18:45.079Z,24.60
2019-03-04T02:21:15.607Z,24.37
2019-03-04T02:23:47.409Z,25.13
2019-03-04T02:26:19.036Z,24.63
2019-03-04T02:28:49.498Z,25.43
2019-03-04T02:31:20.074Z,24.00
2019-03-04T02:33:50.531Z,25.03
2019-03-04T02:36:21.016Z,24.77
2019-03-04T02:38:51.485Z,25.30
2019-03-04T02:41:21.971Z,25.60
2019-03-04T02:43:52.422Z,24.63
2019-03-04T02:46:22.911Z,25.00
2019-03-04T02:48:53.386Z,23.83
2019-03-04T02:51:23.868Z,25.13
2019-03-04T02:53:54.361Z,27.90
2019-03-04T02:56:25.397Z,27.17
2019-03-04T02:58:55.877Z,27.90
2019-03-04T03:01:26.371Z,29.33
2019-03-04T03:03:56.856Z,31.57
2019-03-04T03:06:27.333Z,33.53
2019-03-04T03:08:57.856Z,33.57
2019-03-04T03:11:28.327Z,31.23
2019-03-04T03:13:58.822Z,33.50
2019-03-04T03:16:29.287Z,34.57
2019-03-04T03:18:59.823Z,35.97
2019-03-04T03:21:30.323Z,30.47
2019-03-04T03:24:00.823Z,29.17
2019-03-04T03:26:31.307Z,31.63
2019-03-04T03:29:01.804Z,32.27
2019-03-04T03:31:32.302Z,32.10
2019-03-04T03:34:02.766Z,33.37
2019-03-04T03:36:33.259Z,30.73
2019-03-04T03:39:04.558Z,30.10
2019-03-04T03:41:36.591Z,32.90
2019-03-04T03:44:08.613Z,32.27
2019-03-04T03:46:40.636Z,31.47
2019-03-04T03:49:11.131Z,31.50
2019-03-04T03:51:41.601Z,31.80
2019-03-04T03:54:12.089Z,31.97
2019-03-04T03:56:43.749Z,33.60
2019-03-04T03:59:14.966Z,30.17
2019-03-04T04:01:45.447Z,32.17
2019-03-04T04:04:16.693Z,30.67
2019-03-04T04:06:47.195Z,32.33
2019-03-04T04:09:17.665Z,30.97
2019-03-04T04:11:48.161Z,31.33
2019-03-04T04:14:18.649Z,32.47
2019-03-04T04:16:49.145Z,31.60
2019-03-04T04:19:19.601Z,32.87
2019-03-04T04:21:50.115Z,32.13
2019-03-04T04:24:20.578Z,31.37
2019-03-04T04:26:51.078Z,30.57
2019-03-04T04:29:21.559Z,31.53
2019-03-04T04:31:52.042Z,30.50
2019-03-04T04:34:22.518Z,31.37
2019-03-04T04:36:55.859Z,30.17
2019-03-04T04:39:26.316Z,29.50
2019-03-04T04:41:56.806Z,31.60
2019-03-04T04:44:27.272Z,32.70
2019-03-04T04:46:57.844Z,32.70
2019-03-04T04:49:28.300Z,33.60
2019-03-04T04:51:58.799Z,30.70
2019-03-04T04:54:29.301Z,33.80
2019-03-04T04:56:59.769Z,33.07
2019-03-04T04:59:32.139Z,35.70
2019-03-04T05:02:03.923Z,32.07
2019-03-04T05:04:35.672Z,35.27
2019-03-04T05:07:06.201Z,32.90
2019-03-04T05:09:57.354Z,32.33
2019-03-04T05:12:27.817Z,31.00
2019-03-04T05:14:58.301Z,32.90
2019-03-04T05:17:28.785Z,31.97
2019-03-04T05:19:59.268Z,31.70
2019-03-04T05:22:29.737Z,32.13
2019-03-04T05:25:00.356Z,29.07
2019-03-04T05:27:30.801Z,30.27
2019-03-04T05:30:01.302Z,30.87
2019-03-04T05:32:31.767Z,30.00
2019-03-04T05:35:02.254Z,31.53
2019-03-04T05:37:32.735Z,31.70
2019-03-04T05:40:03.693Z,30.40
2019-03-04T05:42:34.235Z,30.77
2019-03-04T05:45:07.393Z,31.53
2019-03-04T05:47:37.848Z,30.83
2019-03-04T05:50:12.522Z,29.87
2019-03-04T05:52:42.983Z,30.00
2019-03-04T05:55:15.681Z,30.23
2019-03-04T05:57:46.622Z,31.77
2019-03-04T06:00:25.503Z,30.50
2019-03-04T06:03:06.440Z,30.63
2019-03-04T06:05:36.921Z,29.87
2019-03-04T06:08:11.712Z,32.53
2019-03-04T06:10:42.210Z,32.87
2019-03-04T06:13:12.695Z,35.47
2019-03-04T06:15:45.062Z,34.17
2019-03-04T06:18:15.587Z,37.70
2019-03-04T06:20:47.952Z,37.47
2019-03-04T06:23:18.414Z,34.50
2019-03-04T06:25:48.900Z,40.80
2019-03-04T06:28:20.910Z,41.00
2019-03-04T06:30:51.403Z,40.53
2019-03-04T06:33:23.509Z,38.90
2019-03-04T06:35:54.018Z,42.33
2019-03-04T06:38:24.488Z,41.17
2019-03-04T06:40:56.126Z,42.53
2019-03-04T06:43:26.604Z,54.27
2019-03-04T06:45:57.702Z,64.70
2019-03-04T06:48:28.194Z,45.77
2019-03-04T06:50:58.656Z,42.57
2019-03-04T06:53:33.867Z,42.00
2019-03-04T06:56:25.207Z,43.37
2019-03-04T06:59:08.891Z,37.60
2019-03-04T07:01:44.103Z,40.47
2019-03-04T07:04:31.149Z,127.53
2019-03-04T07:07:01.646Z,95.20
2019-03-04T07:09:32.121Z,48.73
2019-03-04T07:12:02.615Z,38.77
2019-03-04T07:14:33.074Z,40.50
2019-03-04T07:17:03.572Z,39.67
2019-03-04T07:19:34.027Z,35.30
2019-03-04T07:22:04.520Z,37.27
2019-03-04T07:24:35.069Z,34.97
2019-03-04T07:27:05.815Z,39.40
2019-03-04T07:29:37.085Z,35.07
2019-03-04T07:32:07.626Z,37.27
2019-03-04T07:34:38.233Z,37.40
2019-03-04T07:37:09.765Z,34.43
2019-03-04T07:39:40.276Z,34.13
2019-03-04T07:42:10.766Z,36.40
2019-03-04T07:44:41.247Z,36.20
2019-03-04T07:47:11.740Z,34.67
2019-03-04T07:49:43.605Z,36.50
2019-03-04T07:52:14.074Z,38.07
2019-03-04T07:54:44.562Z,37.80
2019-03-04T07:57:15.049Z,36.50
2019-03-04T07:59:45.549Z,37.53
2019-03-04T08:02:16.161Z,35.63
2019-03-04T08:04:59.715Z,34.30
2019-03-04T08:07:45.711Z,36.60
2019-03-04T08:10:57.766Z,35.70
2019-03-04T08:13:51.386Z,35.30
2019-03-04T08:16:21.851Z,35.17
2019-03-04T08:18:52.336Z,34.57
2019-03-04T08:21:22.832Z,35.00
2019-03-04T08:23:53.596Z,31.90
2019-03-04T08:26:25.705Z,31.83
2019-03-04T08:28:58.768Z,31.57
2019-03-04T08:31:29.397Z,30.43
2019-03-04T08:34:01.502Z,30.27
2019-03-04T08:36:32.024Z,32.80
2019-03-04T08:39:02.655Z,30.67
2019-03-04T08:41:35.698Z,32.17
2019-03-04T08:44:06.249Z,30.60
2019-03-04T08:46:38.039Z,36.60
2019-03-04T08:49:10.652Z,34.53
2019-03-04T08:51:42.687Z,35.87
2019-03-04T08:54:13.143Z,37.03
2019-03-04T08:56:43.635Z,35.70
2019-03-04T08:59:14.106Z,32.43
2019-03-04T09:01:45.571Z,32.00
2019-03-04T09:04:17.570Z,31.50
2019-03-04T09:06:48.067Z,29.97
2019-03-04T09:09:18.815Z,30.00
2019-03-04T09:11:49.429Z,29.13
2019-03-04T09:14:20.493Z,28.37
2019-03-04T09:16:50.966Z,28.50
2019-03-04T09:19:22.042Z,28.73
2019-03-04T09:21:53.076Z,29.00
2019-03-04T09:24:23.590Z,30.07
2019-03-04T09:26:55.265Z,32.30
2019-03-04T09:29:29.070Z,31.40
2019-03-04T09:32:00.100Z,30.70
2019-03-04T09:34:30.578Z,31.80
2019-03-04T09:37:03.607Z,30.23
2019-03-04T09:39:34.104Z,28.90
2019-03-04T09:42:07.265Z,30.03
2019-03-04T09:44:37.755Z,31.57
2019-03-04T09:47:08.218Z,36.63
2019-03-04T09:49:38.712Z,36.27
2019-03-04T09:52:09.842Z,30.47
2019-03-04T09:54:41.507Z,34.27
2019-03-04T09:57:13.166Z,35.40
2019-03-04T09:59:43.663Z,30.30
2019-03-04T10:02:16.092Z,35.20
2019-03-04T10:05:21.532Z,31.70
2019-03-04T10:07:59.552Z,29.33
2019-03-04T10:11:01.244Z,31.83
2019-03-04T10:14:01.841Z,28.47
2019-03-04T10:16:43.818Z,30.30
2019-03-04T10:19:39.523Z,34.90
2019-03-04T10:22:24.413Z,32.67
2019-03-04T10:25:36.376Z,28.30
2019-03-04T10:28:44.538Z,28.03
2019-03-04T10:31:25.466Z,69.63
2019-03-04T10:34:27.765Z,38.63
2019-03-04T10:37:10.093Z,27.07
2019-03-04T10:40:18.259Z,28.57
2019-03-04T10:43:12.706Z,28.17
2019-03-04T10:45:56.859Z,25.23
2019-03-04T10:48:27.361Z,27.77
2019-03-04T10:50:59.026Z,29.40
2019-03-04T10:53:29.539Z,28.20
2019-03-04T10:56:00.008Z,29.10
2019-03-04T10:58:30.530Z,28.37
2019-03-04T11:01:01.520Z,32.33
2019-03-04T11:03:32.020Z,30.17
2019-03-04T11:06:03.537Z,26.67
2019-03-04T11:08:34.055Z,22.20
2019-03-04T11:11:04.681Z,21.30
2019-03-04T11:13:35.949Z,20.73
2019-03-04T11:16:06.414Z,21.70
2019-03-04T11:18:37.010Z,21.40
2019-03-04T11:21:07.657Z,18.90
2019-03-04T11:23:38.159Z,17.30
2019-03-04T11:26:08.704Z,17.10
2019-03-04T11:28:39.307Z,16.53
2019-03-04T11:31:09.767Z,14.40
2019-03-04T11:33:40.263Z,14.27
2019-03-04T11:36:10.744Z,14.80
2019-03-04T11:38:48.497Z,16.40
2019-03-04T11:41:22.269Z,18.20
2019-03-04T11:43:52.773Z,19.67
2019-03-04T11:46:24.266Z,18.37
2019-03-04T11:48:54.725Z,19.60
2019-03-04T11:51:26.861Z,20.00
2019-03-04T11:53:57.345Z,21.37
2019-03-04T11:56:27.846Z,20.63
2019-03-04T11:58:59.380Z,21.73
2019-03-04T12:01:34.599Z,20.33
2019-03-04T12:04:05.202Z,18.10
2019-03-04T12:06:37.256Z,20.70
2019-03-04T12:09:11.461Z,17.93
2019-03-04T12:11:42.039Z,18.90
2019-03-04T12:14:12.523Z,15.20
2019-03-04T12:16:43.083Z,16.37
2019-03-04T12:19:15.986Z,15.20
2019-03-04T12:21:46.498Z,16.07
2019-03-04T12:24:16.985Z,13.60
2019-03-04T12:26:47.736Z,14.40
2019-03-04T12:29:18.239Z,14.53
2019-03-04T12:31:50.358Z,14.30
2019-03-04T12:34:24.931Z,13.30
2019-03-04T12:36:55.603Z,12.67
2019-03-04T12:39:26.101Z,13.80
2019-03-04T12:41:56.610Z,10.97
2019-03-04T12:44:27.670Z,9.57
2019-03-04T12:46:58.134Z,9.90
2019-03-04T12:49:28.631Z,8.60
2019-03-04T12:51:59.111Z,8.70
2019-03-04T12:54:29.595Z,7.30
2019-03-04T12:57:00.059Z,8.43
2019-03-04T12:59:30.555Z,7.50
2019-03-04T13:02:01.096Z,7.93
2019-03-04T13:04:31.852Z,8.00
2019-03-04T13:07:02.311Z,7.70
2019-03-04T13:09:33.284Z,8.60
2019-03-04T13:12:03.752Z,6.43
2019-03-04T13:14:34.253Z,7.30
2019-03-04T13:17:04.707Z,7.20
2019-03-04T13:19:35.222Z,7.00
2019-03-04T13:22:08.794Z,6.50
2019-03-04T13:24:38.794Z,6.10
2019-03-04T13:27:09.263Z,6.90
2019-03-04T13:29:39.796Z,6.73
2019-03-04T13:32:10.410Z,6.53
2019-03-04T13:34:40.916Z,6.60
2019-03-04T13:37:11.455Z,6.60
2019-03-04T13:39:41.945Z,6.30
2019-03-04T13:42:12.464Z,5.90
2019-03-04T13:44:43.041Z,7.00
2019-03-04T13:47:13.516Z,7.00
2019-03-04T13:49:44.479Z,7.30
2019-03-04T13:52:15.053Z,7.10
2019-03-04T13:54:45.514Z,7.23
2019-03-04T13:57:16.012Z,7.20
2019-03-04T13:59:46.468Z,7.00
2019-03-04T14:02:17.814Z,6.63
2019-03-04T14:04:49.351Z,7.50
2019-03-04T14:07:19.824Z,7.40
2019-03-04T14:09:50.318Z,9.50
2019-03-04T14:12:22.853Z,8.50
2019-03-04T14:14:53.444Z,8.50
2019-03-04T14:17:23.920Z,9.13
2019-03-04T14:19:55.117Z,8.73
2019-03-04T14:22:25.556Z,7.93
2019-03-04T14:24:56.631Z,9.30
2019-03-04T14:27:28.635Z,10.23
2019-03-04T14:30:00.473Z,11.43
2019-03-04T14:32:32.064Z,10.33
2019-03-04T14:35:02.552Z,9.90
2019-03-04T14:37:33.047Z,8.43
2019-03-04T14:40:03.814Z,9.60
2019-03-04T14:42:34.330Z,10.53
2019-03-04T14:45:09.787Z,10.27
2019-03-04T14:47:40.940Z,11.80
2019-03-04T14:50:20.644Z,11.13
2019-03-04T14:52:51.486Z,11.37
2019-03-04T14:55:32.403Z,11.50
2019-03-04T14:58:05.356Z,10.37
2019-03-04T15:00:44.238Z,12.00
2019-03-04T15:03:23.047Z,11.60
2019-03-04T15:05:48.699Z,13.00
2019-03-04T15:08:19.286Z,12.73
2019-03-04T15:10:49.849Z,12.97
2019-03-04T15:13:21.902Z,13.93
2019-03-04T15:16:01.196Z,13.30
2019-03-04T15:18:24.576Z,17.83
2019-03-04T15:20:55.084Z,16.90
2019-03-04T15:23:25.550Z,13.90
2019-03-04T15:25:56.186Z,13.47
2019-03-04T15:28:27.398Z,13.80
2019-03-04T15:31:06.041Z,13.73
2019-03-04T15:33:36.514Z,13.00
2019-03-04T15:36:09.986Z,16.70
2019-03-04T15:38:41.612Z,20.47
2019-03-04T15:41:12.253Z,16.10
2019-03-04T15:43:42.726Z,12.90
2019-03-04T15:46:13.399Z,14.80
2019-03-04T15:48:43.942Z,14.00
2019-03-04T15:51:14.454Z,12.30
2019-03-04T15:53:46.583Z,13.23
2019-03-04T15:56:19.952Z,13.67
2019-03-04T15:58:51.834Z,13.10
2019-03-04T16:01:22.413Z,14.47
2019-03-04T16:03:53.054Z,14.10
2019-03-04T16:06:23.611Z,14.53
2019-03-04T16:08:54.120Z,13.13
2019-03-04T16:11:25.420Z,13.70
2019-03-04T16:13:56.300Z,13.60
2019-03-04T16:16:28.107Z,15.27
2019-03-04T16:18:58.601Z,15.20
2019-03-04T16:21:29.104Z,14.17
2019-03-04T16:23:59.604Z,15.10
2019-03-04T16:26:30.089Z,21.00
2019-03-04T16:29:02.140Z,17.10
2019-03-04T16:31:32.605Z,18.47
2019-03-04T16:34:04.741Z,16.30
2019-03-04T16:36:35.226Z,20.07
2019-03-04T16:39:08.393Z,19.10
2019-03-04T16:41:39.522Z,16.97
2019-03-04T16:44:10.023Z,17.57
2019-03-04T16:46:40.524Z,21.40
2019-03-04T16:49:11.001Z,23.87
2019-03-04T16:51:42.903Z,21.90
2019-03-04T16:54:14.165Z,21.90
2019-03-04T16:56:46.213Z,21.70
2019-03-04T16:59:16.709Z,20.93
2019-03-04T17:01:47.292Z,18.70
2019-03-04T17:04:22.936Z,19.47
2019-03-04T17:06:54.729Z,19.40
2019-03-04T17:09:25.942Z,18.53
2019-03-04T17:11:56.430Z,19.00
2019-03-04T17:14:26.973Z,22.13
2019-03-04T17:16:57.477Z,25.83
2019-03-04T17:19:27.954Z,31.80
2019-03-04T17:21:58.469Z,32.40
2019-03-04T17:24:29.008Z,31.43
2019-03-04T17:26:59.508Z,30.40
2019-03-04T17:29:33.025Z,31.60
2019-03-04T17:32:06.425Z,33.00
2019-03-04T17:34:37.665Z,31.37
2019-03-04T17:37:08.186Z,29.13
2019-03-04T17:39:38.647Z,29.60
2019-03-04T17:42:09.169Z,26.50
2019-03-04T17:44:40.871Z,34.73
2019-03-04T17:47:14.297Z,46.97
2019-03-04T17:49:47.758Z,26.20
2019-03-04T17:52:19.834Z,24.53
2019-03-04T17:54:51.821Z,20.43
2019-03-04T17:57:22.320Z,19.00
2019-03-04T17:59:54.438Z,18.90
2019-03-04T18:02:24.935Z,20.13
2019-03-04T18:04:55.403Z,18.83
2019-03-04T18:07:27.544Z,20.27
2019-03-04T18:09:58.038Z,22.17
2019-03-04T18:12:28.502Z,21.67
2019-03-04T18:14:58.993Z,23.70
2019-03-04T18:17:29.522Z,21.27
2019-03-04T18:20:01.814Z,21.57
2019-03-04T18:22:32.345Z,20.37
2019-03-04T18:25:03.007Z,24.13
2019-03-04T18:27:33.534Z,25.73
2019-03-04T18:30:52.719Z,27.07
2019-03-04T18:34:03.707Z,22.37
2019-03-04T18:37:28.673Z,32.43
2019-03-04T18:40:46.175Z,21.23
2019-03-04T18:43:27.152Z,20.20
2019-03-04T18:46:19.826Z,21.73
2019-03-04T18:49:00.876Z,23.90
2019-03-04T18:51:31.496Z,22.77
2019-03-04T18:54:05.656Z,22.77
2019-03-04T18:56:36.228Z,22.43
2019-03-04T18:59:08.010Z,22.93
2019-03-04T19:01:38.607Z,23.10
2019-03-04T19:04:10.198Z,22.07
2019-03-04T19:06:40.754Z,20.30
2019-03-04T19:09:11.311Z,19.27
2019-03-04T19:11:42.090Z,19.63
2019-03-04T19:14:13.350Z,19.77
2019-03-04T19:16:43.895Z,21.80
2019-03-04T19:19:14.400Z,23.27
2019-03-04T19:21:44.874Z,21.90
2019-03-04T19:24:15.414Z,21.73
2019-03-04T19:26:45.895Z,21.87
2019-03-04T19:29:16.426Z,21.53
2019-03-04T19:31:46.897Z,24.50
2019-03-04T19:34:18.049Z,24.20
2019-03-04T19:36:48.536Z,24.73
2019-03-04T19:39:20.776Z,24.77
2019-03-04T19:41:54.750Z,25.07
2019-03-04T19:44:25.257Z,25.10
2019-03-04T19:46:56.391Z,24.37
2019-03-04T19:49:26.869Z,24.80
2019-03-04T19:51:57.365Z,22.77
2019-03-04T19:54:27.931Z,24.70
2019-03-04T19:56:58.573Z,23.63
2019-03-04T19:59:29.037Z,21.03
2019-03-04T20:01:59.598Z,19.00
2019-03-04T20:04:30.083Z,19.77
2019-03-04T20:07:01.407Z,27.73
2019-03-04T20:09:33.479Z,18.23
2019-03-04T20:12:06.949Z,20.57
2019-03-04T20:14:37.414Z,20.33
2019-03-04T20:17:07.976Z,20.10
2019-03-04T20:19:38.466Z,11.17
2019-03-04T20:22:08.924Z,13.93
2019-03-04T20:24:39.413Z,7.07
2019-03-04T20:27:09.881Z,5.80
2019-03-04T20:29:40.360Z,4.97
2019-03-04T20:32:11.984Z,4.67
2019-03-04T20:34:42.479Z,2.60
2019-03-04T20:37:14.657Z,3.10
2019-03-04T20:39:45.136Z,2.60
2019-03-04T20:42:15.640Z,2.77
2019-03-04T20:44:47.755Z,2.23
2019-03-04T20:47:19.221Z,2.17
2019-03-04T20:49:50.147Z,2.50
2019-03-04T20:52:20.658Z,2.20
2019-03-04T20:54:51.776Z,2.33
2019-03-04T20:57:23.713Z,2.43
2019-03-04T20:59:54.151Z,1.60
2019-03-04T21:02:27.269Z,1.23
2019-03-04T21:04:58.395Z,1.47
2019-03-04T21:07:28.859Z,1.13
2019-03-04T21:10:00.862Z,1.17
2019-03-04T21:12:31.350Z,1.20
2019-03-04T21:15:01.798Z,1.00
2019-03-04T21:17:32.343Z,0.80
2019-03-04T21:20:02.866Z,1.20
2019-03-04T21:22:34.815Z,0.83
2019-03-04T21:25:08.939Z,1.07
2019-03-04T21:27:41.002Z,1.40
2019-03-04T21:30:32.899Z,1.17
2019-03-04T21:33:05.307Z,1.10
2019-03-04T21:36:15.257Z,1.30
2019-03-04T21:38:44.824Z,1.00
2019-03-04T21:41:31.041Z,1.10
2019-03-04T21:44:22.385Z,1.17
2019-03-04T21:47:15.318Z,0.90
2019-03-04T21:49:49.824Z,1.10
2019-03-04T21:52:35.068Z,1.10
2019-03-04T21:55:12.815Z,1.60
2019-03-04T21:57:48.408Z,1.57
2019-03-04T22:00:27.139Z,1.00
2019-03-04T22:03:13.018Z,1.30
2019-03-04T22:05:50.104Z,1.27
2019-03-04T22:08:15.927Z,1.00
2019-03-04T22:10:46.501Z,1.50
2019-03-04T22:13:17.258Z,1.33
2019-03-04T22:15:50.153Z,1.43
2019-03-04T22:18:20.753Z,1.77
2019-03-04T22:20:51.318Z,1.40
2019-03-04T22:23:21.863Z,1.80
2019-03-04T22:26:01.495Z,1.57
2019-03-04T22:28:26.102Z,2.07
2019-03-04T22:30:56.563Z,2.97
2019-03-04T22:33:27.183Z,2.90
2019-03-04T22:35:57.679Z,3.63
2019-03-04T22:38:28.175Z,3.90
2019-03-04T22:40:58.654Z,4.20
2019-03-04T22:43:29.111Z,5.60
2019-03-04T22:45:59.597Z,5.70
2019-03-04T22:48:31.421Z,6.37
2019-03-04T22:51:02.038Z,7.50
2019-03-04T22:53:33.545Z,7.97
2019-03-04T22:56:04.141Z,7.30
2019-03-04T22:58:36.160Z,7.93
2019-03-04T23:01:30.383Z,7.60
2019-03-04T23:04:11.307Z,7.37
2019-03-04T23:07:10.072Z,8.30
2019-03-04T23:09:54.631Z,7.20
2019-03-04T23:12:32.941Z,7.73
2019-03-04T23:15:05.061Z,8.03
2019-03-04T23:17:35.529Z,8.40
2019-03-04T23:20:07.953Z,8.93
2019-03-04T23:22:38.421Z,7.90
2019-03-04T23:25:13.638Z,7.73
2019-03-04T23:27:44.091Z,7.83
2019-03-04T23:30:16.406Z,6.57
2019-03-04T23:32:47.093Z,7.37
2019-03-04T23:35:17.581Z,7.97
2019-03-04T23:37:48.110Z,7.83
2019-03-04T23:40:19.378Z,6.73
2019-03-04T23:42:50.928Z,5.90
2019-03-04T23:45:24.075Z,6.17
2019-03-04T23:47:54.600Z,5.20
2019-03-04T23:50:25.694Z,4.97
2019-03-04T23:52:56.170Z,5.10
2019-03-04T23:55:26.619Z,5.57
2019-03-04T23:57:57.175Z,5.53
